CheckWX is a tool to help pilots better visualize weather data.  It is not intended as a substitute for an official pre-flight weather briefing.

13:05:42 UTC

EDDH TAF
Hamburg Airport
Hamburg, Germany
TAF EDDH 241100Z 2412/2518 26012G22KT CAVOK BECMG 2418/2420 28007KT TEMPO 2422/2506 BKN012 BECMG 2506/2508 29012KT

May-24@
12:00 UTC

May-24 @ 12:00 UTC

May-24@
18:00 UTC

May-24 @ 18:00 UTC

TAF EDDH 241100Z 2412/2518 26012G22KT CAVOK
Wind
  • 260° at 12 KTS
  • {Gusting to 22 KTS
Conditions
No significant weather
Cloud Levels
  • No significant clouds

May-24@
18:00 UTC

May-24 @ 18:00 UTC

May-25@
06:00 UTC

May-25 @ 06:00 UTC

BECMG 2418/2420 28007KT

Becoming

Becoming Conditions expected by Fri, May 24, 2019 @ 20:00 UTC

Wind
  • 280° at 7 KTS
Conditions
No significant weather
Cloud Levels
  • No significant clouds

May-24@
22:00 UTC

May-24 @ 22:00 UTC

May-25@
06:00 UTC

May-25 @ 06:00 UTC

TEMPO 2422/2506 BKN012

Temporary

Temporary Changes expected for less than half the time period

Cloud Levels
  • Broken at 1,200' AGL

May-25@
06:00 UTC

May-25 @ 06:00 UTC

May-25@
18:00 UTC

May-25 @ 18:00 UTC

BECMG 2506/2508 29012KT

Becoming

Becoming Conditions expected by Sat, May 25, 2019 @ 08:00 UTC

Wind
  • 290° at 12 KTS
Conditions
No significant weather
Cloud Levels
  • No significant clouds